Time;durP1;ratioP1;P1;durP2;ratioP2;P2;SDS_P1;SDS_P2;PMS_P1;PMS_P2;Temp;Humidity;BMP_temperature;BMP_pressure;BME280_temperature;BME280_humidity;BME280_pressure;Samples;Min_cycle;Max_cycle;Signal;HPM_P1;HPM_P2
2022/08/24 00:00:39;;;;;;;63.22;51.03;;;27.00;58.10;;;;;;4916478;28;89933;-53
2022/08/24 00:03:06;;;;;;;62.65;50.92;;;27.00;58.10;;;;;;4931778;28;90606;-54
2022/08/24 00:05:31;;;;;;;62.03;51.05;;;27.00;58.10;;;;;;4925002;28;90660;-54
2022/08/24 00:07:57;;;;;;;61.97;50.90;;;27.00;58.20;;;;;;4917614;28;92499;-51
2022/08/24 00:10:25;;;;;;;62.55;50.88;;;27.00;58.20;;;;;;4921037;28;90646;-52
2022/08/24 00:12:51;;;;;;;62.53;50.83;;;27.00;58.30;;;;;;4908135;28;93121;-51
2022/08/24 00:15:17;;;;;;;63.67;51.15;;;27.00;58.30;;;;;;4926765;28;90890;-52
2022/08/24 00:17:43;;;;;;;62.42;50.90;;;27.00;58.20;;;;;;4921806;28;92731;-53
2022/08/24 00:20:12;;;;;;;62.33;51.10;;;27.00;58.30;;;;;;4930492;28;90039;-50
2022/08/24 00:22:38;;;;;;;63.60;50.95;;;27.00;58.30;;;;;;4922628;28;91369;-56
2022/08/24 00:25:05;;;;;;;61.75;50.80;;;27.00;58.40;;;;;;4921972;28;91195;-56
2022/08/24 00:27:31;;;;;;;62.25;50.90;;;27.00;58.40;;;;;;4920777;28;91103;-55
2022/08/24 00:29:57;;;;;;;61.97;50.97;;;26.90;58.30;;;;;;4927170;28;90307;-50
2022/08/24 00:32:23;;;;;;;61.80;50.83;;;26.90;58.40;;;;;;4923416;28;90250;-51
2022/08/24 00:34:48;;;;;;;62.33;50.97;;;26.90;58.40;;;;;;4922612;28;91395;-53
2022/08/24 00:37:14;;;;;;;62.35;50.95;;;26.90;58.40;;;;;;4926334;28;95128;-54
2022/08/24 00:39:40;;;;;;;62.35;51.05;;;26.90;58.40;;;;;;4922990;28;91420;-54
2022/08/24 00:42:05;;;;;;;61.95;50.92;;;26.90;58.40;;;;;;4918236;28;94341;-54
2022/08/24 00:44:32;;;;;;;62.10;50.85;;;26.90;58.40;;;;;;4912854;28;94626;-55
2022/08/24 00:47:09;;;;;;;62.03;50.90;;;26.90;58.50;;;;;;4919455;28;96367;-55
2022/08/24 00:49:53;;;;;;;62.05;50.80;;;26.90;58.50;;;;;;4934105;28;89913;-53
2022/08/24 00:52:33;;;;;;;61.90;50.88;;;26.90;58.60;;;;;;4927576;28;90661;-53
2022/08/24 00:55:11;;;;;;;61.97;50.88;;;26.90;58.60;;;;;;4930229;28;91282;-55
2022/08/24 00:57:41;;;;;;;61.70;50.65;;;26.80;58.60;;;;;;4920671;28;95132;-52
2022/08/24 01:00:13;;;;;;;61.80;50.92;;;26.90;58.70;;;;;;4918015;28;96417;-56
2022/08/24 01:02:43;;;;;;;61.95;50.90;;;26.80;58.70;;;;;;4910426;28;91487;-54
2022/08/24 01:05:11;;;;;;;61.58;50.80;;;26.80;58.60;;;;;;4914495;28;89825;-51
2022/08/24 01:07:38;;;;;;;61.60;50.72;;;26.80;58.60;;;;;;4933940;28;91133;-54
2022/08/24 01:10:08;;;;;;;62.50;50.92;;;26.80;58.60;;;;;;4919905;28;90071;-55
2022/08/24 01:12:36;;;;;;;61.58;50.92;;;26.80;58.60;;;;;;4918176;28;89997;-54
2022/08/24 01:15:05;;;;;;;61.47;50.63;;;26.80;58.60;;;;;;4918436;28;90382;-52
2022/08/24 01:20:16;;;;;;;61.65;50.85;;;26.80;58.70;;;;;;4921040;28;90584;-54
2022/08/24 01:23:01;;;;;;;61.55;50.83;;;26.80;58.60;;;;;;4895341;28;94002;-54
2022/08/24 01:25:28;;;;;;;61.33;50.58;;;26.80;58.60;;;;;;4922480;28;90284;-53
2022/08/24 01:27:58;;;;;;;61.63;50.72;;;26.80;58.70;;;;;;4923915;28;91075;-53
2022/08/24 01:30:25;;;;;;;61.50;50.85;;;26.80;58.80;;;;;;4919338;28;95691;-54
2022/08/24 01:33:00;;;;;;;61.80;50.80;;;26.80;58.80;;;;;;4913390;28;94977;-54
2022/08/24 01:35:27;;;;;;;62.13;50.80;;;26.70;58.90;;;;;;4925784;28;90544;-55
2022/08/24 01:37:54;;;;;;;61.80;50.70;;;26.70;58.90;;;;;;4914440;28;95108;-52
2022/08/24 01:40:24;;;;;;;62.17;50.75;;;26.70;58.90;;;;;;4918669;28;89847;-50
2022/08/24 01:42:52;;;;;;;61.90;50.83;;;26.70;58.90;;;;;;4911591;28;90577;-53
2022/08/24 01:45:18;;;;;;;61.70;50.72;;;26.70;58.90;;;;;;4921128;28;89380;-53
2022/08/24 01:47:44;;;;;;;62.00;50.97;;;26.70;58.90;;;;;;4925151;28;90743;-52
2022/08/24 01:50:10;;;;;;;61.85;50.80;;;26.70;59.00;;;;;;4924649;28;89812;-51
2022/08/24 01:52:39;;;;;;;61.70;50.92;;;26.70;59.00;;;;;;4915826;28;91268;-50
2022/08/24 01:55:07;;;;;;;61.78;50.88;;;26.60;59.00;;;;;;4920467;28;91874;-51
2022/08/24 01:57:32;;;;;;;61.60;50.83;;;26.60;59.10;;;;;;4914411;28;91759;-57
2022/08/24 01:59:59;;;;;;;61.58;50.90;;;26.60;59.10;;;;;;4917286;28;94362;-56
2022/08/24 02:02:28;;;;;;;62.25;50.90;;;26.60;59.00;;;;;;4905370;28;90861;-50
2022/08/24 02:04:54;;;;;;;61.53;50.65;;;26.70;59.10;;;;;;4920151;28;90166;-50
2022/08/24 02:07:20;;;;;;;61.65;50.72;;;26.60;59.00;;;;;;4927724;28;90011;-53
2022/08/24 02:09:46;;;;;;;61.50;50.67;;;26.60;59.10;;;;;;4921179;28;89965;-54
2022/08/24 02:12:12;;;;;;;61.42;50.60;;;26.60;59.10;;;;;;4918987;28;90703;-55
2022/08/24 02:14:38;;;;;;;61.40;50.70;;;26.60;59.20;;;;;;4917547;28;97064;-53
2022/08/24 02:17:06;;;;;;;61.80;50.83;;;26.60;59.20;;;;;;4916637;28;95360;-54
2022/08/24 02:19:33;;;;;;;61.38;50.75;;;26.60;59.30;;;;;;4922104;28;90810;-56
2022/08/24 02:21:59;;;;;;;61.28;50.60;;;26.60;59.20;;;;;;4924945;28;91308;-55
2022/08/24 02:24:29;;;;;;;61.47;50.70;;;26.50;59.30;;;;;;4928537;28;90142;-54
2022/08/24 02:26:55;;;;;;;61.63;50.83;;;26.50;59.30;;;;;;4910412;28;91470;-52
2022/08/24 02:29:21;;;;;;;63.17;50.60;;;26.50;59.40;;;;;;4921608;28;94558;-53
2022/08/24 02:31:46;;;;;;;63.30;50.60;;;26.50;59.40;;;;;;4925352;28;89935;-55
2022/08/24 02:34:12;;;;;;;61.70;50.80;;;26.50;59.40;;;;;;4916399;28;90961;-53
2022/08/24 02:36:39;;;;;;;61.97;50.85;;;26.50;59.50;;;;;;4917336;28;92964;-54
2022/08/24 02:39:06;;;;;;;61.67;50.63;;;26.50;59.40;;;;;;4923151;28;89875;-54
2022/08/24 02:41:32;;;;;;;61.72;50.65;;;26.50;59.40;;;;;;4915042;28;96259;-55
2022/08/24 02:43:58;;;;;;;61.58;50.65;;;26.50;59.40;;;;;;4915159;28;92817;-56
2022/08/24 02:46:26;;;;;;;61.65;50.72;;;26.50;59.50;;;;;;4914879;28;90321;-53
2022/08/24 02:48:52;;;;;;;61.55;50.90;;;26.50;59.50;;;;;;4923831;28;90650;-54
2022/08/24 02:51:23;;;;;;;61.50;50.75;;;26.40;59.50;;;;;;4921873;28;94889;-54
2022/08/24 02:53:49;;;;;;;62.85;50.72;;;26.50;59.60;;;;;;4918938;28;91071;-52
2022/08/24 02:56:16;;;;;;;62.38;50.63;;;26.50;59.50;;;;;;4925357;28;90207;-52
2022/08/24 02:58:42;;;;;;;61.72;50.72;;;26.50;59.50;;;;;;4928026;28;89649;-55
2022/08/24 03:01:09;;;;;;;61.08;50.53;;;26.40;59.60;;;;;;4922049;28;92680;-54
2022/08/24 03:03:35;;;;;;;61.63;50.78;;;26.40;59.60;;;;;;4923371;28;89521;-52
2022/08/24 03:06:00;;;;;;;61.90;50.85;;;26.40;59.60;;;;;;4927615;28;92673;-54
2022/08/24 03:08:26;;;;;;;61.75;50.95;;;26.40;59.60;;;;;;4930367;28;89880;-55
2022/08/24 03:10:52;;;;;;;61.47;50.67;;;26.40;59.60;;;;;;4923985;28;90854;-52
2022/08/24 03:13:17;;;;;;;61.17;50.63;;;26.40;59.60;;;;;;4921456;28;90087;-54
2022/08/24 03:15:45;;;;;;;62.35;50.53;;;26.40;59.70;;;;;;4924587;28;91343;-54
2022/08/24 03:18:11;;;;;;;62.15;50.55;;;26.30;59.70;;;;;;4922630;28;90476;-51
2022/08/24 03:20:37;;;;;;;61.60;50.92;;;26.30;59.70;;;;;;4933330;28;91025;-54
2022/08/24 03:23:04;;;;;;;62.05;50.75;;;26.30;59.70;;;;;;4911744;28;89550;-55
2022/08/24 03:25:30;;;;;;;61.78;50.53;;;26.30;60.40;;;;;;4934144;28;89746;-54
2022/08/24 03:27:55;;;;;;;61.42;50.53;;;26.30;59.70;;;;;;4928533;28;90886;-53
2022/08/24 03:30:23;;;;;;;61.17;50.47;;;26.30;59.70;;;;;;4919161;28;91407;-51
2022/08/24 03:32:48;;;;;;;61.65;50.75;;;26.30;59.80;;;;;;4924890;28;89962;-55
2022/08/24 03:35:16;;;;;;;61.38;50.65;;;26.30;59.70;;;;;;4927689;28;90786;-52
2022/08/24 03:37:41;;;;;;;61.65;50.83;;;26.30;59.60;;;;;;4922941;28;91300;-51
2022/08/24 03:40:10;;;;;;;61.20;50.55;;;26.30;59.70;;;;;;4920250;28;91002;-53
2022/08/24 03:42:35;;;;;;;61.45;51.00;;;26.30;59.80;;;;;;4908659;28;91881;-55
2022/08/24 03:45:01;;;;;;;61.30;50.67;;;26.30;59.80;;;;;;4923772;28;91121;-52
2022/08/24 03:47:27;;;;;;;61.47;50.85;;;26.30;59.80;;;;;;4923012;28;92272;-55
2022/08/24 03:49:52;;;;;;;61.22;50.53;;;26.30;59.80;;;;;;4928856;28;89799;-52
2022/08/24 03:52:18;;;;;;;61.40;50.75;;;26.20;59.80;;;;;;4923369;28;92032;-53
2022/08/24 03:54:44;;;;;;;61.75;50.55;;;26.30;59.80;;;;;;4924150;28;93600;-55
2022/08/24 03:57:09;;;;;;;61.22;50.63;;;26.20;59.80;;;;;;4918322;28;97094;-54
2022/08/24 03:59:35;;;;;;;61.28;50.75;;;26.30;59.80;;;;;;4916663;28;90827;-53
2022/08/24 04:02:01;;;;;;;61.35;50.75;;;26.20;59.70;;;;;;4915977;28;90493;-51
2022/08/24 04:04:28;;;;;;;61.70;50.83;;;26.30;59.80;;;;;;4923370;28;89824;-53
2022/08/24 04:06:53;;;;;;;61.75;50.85;;;26.30;59.60;;;;;;4919343;28;90468;-51
2022/08/24 04:09:19;;;;;;;62.20;51.30;;;26.20;59.80;;;;;;4921115;28;91416;-54
2022/08/24 04:11:45;;;;;;;62.45;51.15;;;26.20;59.90;;;;;;4926165;28;90457;-53
2022/08/24 04:14:11;;;;;;;62.45;51.03;;;26.20;59.90;;;;;;4918035;28;92695;-54
2022/08/24 04:16:37;;;;;;;62.55;51.05;;;26.20;59.90;;;;;;4922107;28;90406;-55
2022/08/24 04:19:03;;;;;;;61.85;51.17;;;26.20;59.90;;;;;;4914658;28;91850;-52
2022/08/24 04:21:35;;;;;;;62.47;51.15;;;26.20;59.80;;;;;;4927946;28;90893;-50
2022/08/24 04:24:02;;;;;;;61.17;50.65;;;26.20;60.10;;;;;;4922253;28;90560;-55
2022/08/24 04:26:29;;;;;;;62.13;51.22;;;26.20;59.90;;;;;;4927338;28;90241;-50
2022/08/24 04:28:56;;;;;;;61.75;51.15;;;26.20;60.00;;;;;;4908201;28;90902;-53
2022/08/24 04:31:22;;;;;;;61.83;50.85;;;26.20;60.10;;;;;;4921290;28;89742;-54
2022/08/24 04:33:48;;;;;;;62.72;51.15;;;26.20;60.20;;;;;;4927564;28;90232;-54
2022/08/24 04:36:16;;;;;;;62.30;50.78;;;26.10;60.20;;;;;;4922207;28;91117;-55
2022/08/24 04:38:42;;;;;;;61.53;50.70;;;26.10;60.30;;;;;;4911253;28;93543;-51
2022/08/24 04:41:13;;;;;;;61.58;50.78;;;26.10;60.20;;;;;;4933677;28;90811;-55
2022/08/24 04:43:43;;;;;;;62.00;50.67;;;26.10;60.30;;;;;;4919251;28;91766;-53
2022/08/24 04:46:14;;;;;;;62.08;51.13;;;26.10;60.10;;;;;;4925255;28;90316;-50
2022/08/24 04:48:41;;;;;;;62.30;50.97;;;26.10;60.10;;;;;;4917330;28;92754;-56
2022/08/24 04:51:08;;;;;;;62.60;50.83;;;26.10;60.20;;;;;;4922712;28;94927;-52
2022/08/24 04:53:34;;;;;;;63.67;51.15;;;26.10;60.10;;;;;;4922535;28;90513;-50
2022/08/24 04:56:00;;;;;;;62.70;51.15;;;26.10;60.20;;;;;;4924119;28;89885;-54
2022/08/24 04:58:27;;;;;;;63.15;51.25;;;26.00;60.20;;;;;;4912863;28;92013;-51
2022/08/24 05:00:53;;;;;;;63.08;51.58;;;26.00;60.30;;;;;;4933238;28;89152;-53
2022/08/24 05:03:20;;;;;;;62.95;51.33;;;26.00;60.30;;;;;;4936128;28;96067;-50
2022/08/24 05:05:48;;;;;;;62.72;51.03;;;26.00;60.30;;;;;;4921734;28;90454;-54
2022/08/24 05:08:14;;;;;;;62.53;51.00;;;26.00;60.30;;;;;;4919115;28;91321;-54
2022/08/24 05:10:43;;;;;;;63.30;51.15;;;26.00;60.30;;;;;;4920136;28;91070;-54
2022/08/24 05:13:09;;;;;;;62.58;51.03;;;26.00;60.20;;;;;;4923080;28;91833;-51
2022/08/24 05:15:40;;;;;;;64.38;51.00;;;26.00;60.20;;;;;;4920997;28;89853;-52
2022/08/24 05:18:06;;;;;;;64.63;51.25;;;26.00;60.20;;;;;;4936003;28;94669;-54
2022/08/24 05:20:32;;;;;;;67.15;51.78;;;26.00;60.10;;;;;;4934409;28;91821;-54
2022/08/24 05:22:57;;;;;;;65.03;51.38;;;26.00;59.90;;;;;;4920123;28;92018;-50
2022/08/24 05:25:23;;;;;;;64.72;52.25;;;25.70;59.90;;;;;;4910758;28;88949;-54
2022/08/24 05:27:50;;;;;;;67.13;51.63;;;25.50;60.50;;;;;;4936194;28;89609;-51
2022/08/24 05:30:16;;;;;;;64.03;51.83;;;25.30;61.80;;;;;;4919695;28;90859;-52
2022/08/24 05:32:41;;;;;;;62.45;51.63;;;25.20;61.50;;;;;;4915646;28;92900;-55
2022/08/24 05:35:08;;;;;;;63.50;51.92;;;25.00;62.40;;;;;;4919677;28;92321;-54
2022/08/24 05:37:35;;;;;;;63.17;51.88;;;25.00;62.60;;;;;;4930089;28;90145;-54
2022/08/24 05:40:06;;;;;;;65.97;51.78;;;24.90;62.90;;;;;;4928111;28;91817;-52
2022/08/24 05:42:32;;;;;;;63.42;51.65;;;24.80;62.90;;;;;;4920807;28;91992;-54
2022/08/24 05:44:57;;;;;;;62.88;51.67;;;24.80;63.00;;;;;;4921092;28;89649;-54
2022/08/24 05:47:24;;;;;;;65.32;51.63;;;24.80;63.00;;;;;;4927657;28;90361;-54
2022/08/24 05:49:52;;;;;;;66.00;51.45;;;24.70;63.30;;;;;;4919447;28;90356;-51
2022/08/24 05:52:19;;;;;;;65.13;52.13;;;24.60;63.80;;;;;;4925855;28;89856;-52
2022/08/24 05:54:44;;;;;;;63.85;51.45;;;24.40;64.00;;;;;;4929615;28;90058;-52
2022/08/24 05:57:10;;;;;;;63.22;51.45;;;24.30;64.60;;;;;;4924413;28;95133;-51
2022/08/24 05:59:37;;;;;;;63.90;51.63;;;24.20;65.10;;;;;;4921514;28;90173;-55
2022/08/24 06:02:03;;;;;;;63.05;51.83;;;24.20;65.30;;;;;;4921333;28;89561;-50
2022/08/24 06:04:29;;;;;;;62.72;51.63;;;24.20;65.70;;;;;;4925294;28;91590;-55
2022/08/24 06:06:55;;;;;;;64.78;52.03;;;24.20;66.10;;;;;;4921160;28;94461;-55
2022/08/24 06:09:21;;;;;;;64.75;52.03;;;24.10;67.20;;;;;;4928188;28;96913;-53
2022/08/24 06:11:47;;;;;;;63.60;52.03;;;24.00;66.80;;;;;;4912805;28;92039;-54
2022/08/24 06:14:15;;;;;;;64.05;51.97;;;24.00;67.00;;;;;;4935957;28;89130;-53
2022/08/24 06:16:43;;;;;;;63.25;51.70;;;24.10;67.10;;;;;;4924308;28;92015;-53
2022/08/24 06:19:12;;;;;;;64.10;52.20;;;24.10;67.30;;;;;;4916138;28;92876;-53
2022/08/24 06:21:38;;;;;;;63.28;52.08;;;24.10;67.50;;;;;;4913320;28;93269;-54
2022/08/24 06:24:05;;;;;;;65.45;52.38;;;24.10;67.70;;;;;;4926444;28;91930;-55
2022/08/24 06:29:17;;;;;;;67.93;52.78;;;24.10;68.20;;;;;;4909876;28;91077;-54
2022/08/24 06:31:45;;;;;;;64.60;52.28;;;24.20;68.10;;;;;;4916885;28;92269;-54
2022/08/24 06:34:13;;;;;;;65.47;52.42;;;24.30;67.90;;;;;;4921764;28;90291;-55
2022/08/24 06:36:39;;;;;;;66.05;52.42;;;24.40;67.80;;;;;;4923765;28;89967;-55
2022/08/24 06:39:06;;;;;;;65.85;52.50;;;24.70;67.30;;;;;;4914105;28;92732;-53
2022/08/24 06:41:32;;;;;;;67.18;52.47;;;24.90;66.70;;;;;;4924281;28;90002;-54
2022/08/24 06:43:58;;;;;;;64.18;51.97;;;25.00;66.40;;;;;;4928733;28;91201;-51
2022/08/24 06:46:23;;;;;;;65.88;52.38;;;25.10;66.00;;;;;;4925447;28;92475;-55
2022/08/24 06:48:50;;;;;;;62.65;51.92;;;25.10;65.70;;;;;;4926817;28;90711;-52
2022/08/24 06:51:18;;;;;;;65.68;52.42;;;25.10;65.90;;;;;;4923277;28;90482;-52
2022/08/24 06:53:44;;;;;;;64.93;52.38;;;25.10;65.90;;;;;;4929435;28;90928;-51
2022/08/24 06:56:11;;;;;;;65.03;52.60;;;25.20;66.00;;;;;;4924238;28;94737;-51
2022/08/24 06:58:37;;;;;;;66.18;52.30;;;25.20;66.00;;;;;;4930594;28;90939;-54
2022/08/24 07:01:19;;;;;;;63.85;52.25;;;25.20;66.70;;;;;;4922181;28;89716;-54
2022/08/24 07:03:45;;;;;;;65.93;52.22;;;25.30;66.60;;;;;;4924958;28;89249;-55
2022/08/24 07:06:12;;;;;;;64.35;52.33;;;25.30;65.80;;;;;;4928560;28;90420;-52
2022/08/24 07:08:40;;;;;;;63.45;52.22;;;25.40;66.00;;;;;;4921778;28;90309;-54
2022/08/24 07:11:06;;;;;;;64.50;52.13;;;25.40;65.90;;;;;;4919041;28;91378;-53
2022/08/24 07:13:33;;;;;;;66.07;52.22;;;25.50;65.80;;;;;;4916916;28;90298;-55
2022/08/24 07:15:58;;;;;;;63.28;52.08;;;25.50;65.80;;;;;;4928402;28;90657;-54
2022/08/24 07:18:24;;;;;;;64.93;52.45;;;25.50;66.00;;;;;;4930892;28;94734;-55
2022/08/24 07:20:50;;;;;;;65.05;52.65;;;25.60;66.20;;;;;;4925817;28;90729;-53
2022/08/24 07:23:16;;;;;;;67.72;52.83;;;25.60;66.40;;;;;;4928530;28;90111;-54
2022/08/24 07:25:44;;;;;;;67.55;53.15;;;25.60;66.60;;;;;;4919095;28;90556;-52
2022/08/24 07:28:10;;;;;;;65.85;53.33;;;25.70;66.50;;;;;;4927979;28;90034;-53
2022/08/24 07:30:37;;;;;;;66.13;53.35;;;25.70;66.30;;;;;;4929179;28;93160;-54
2022/08/24 07:33:03;;;;;;;66.50;53.53;;;25.80;66.20;;;;;;4933526;28;91245;-54
2022/08/24 07:35:31;;;;;;;64.70;53.40;;;25.70;65.90;;;;;;4914679;28;91084;-52
2022/08/24 07:37:58;;;;;;;64.65;53.20;;;25.80;66.00;;;;;;4926321;28;92734;-51
2022/08/24 07:40:26;;;;;;;66.35;53.33;;;25.80;65.90;;;;;;4918458;28;90499;-54
2022/08/24 07:42:54;;;;;;;65.00;53.15;;;25.80;65.90;;;;;;4930268;28;90698;-55
2022/08/24 07:45:21;;;;;;;69.90;54.15;;;25.80;65.80;;;;;;4923293;28;90953;-55
2022/08/24 07:47:47;;;;;;;65.30;53.15;;;25.80;65.90;;;;;;4918401;28;93533;-54
2022/08/24 07:50:14;;;;;;;65.65;53.35;;;25.80;65.60;;;;;;4923969;28;90543;-53
2022/08/24 07:52:40;;;;;;;65.85;53.28;;;25.80;67.20;;;;;;4916392;28;93485;-54
2022/08/24 07:55:07;;;;;;;67.15;53.50;;;25.90;67.70;;;;;;4920424;28;90188;-54
2022/08/24 07:57:33;;;;;;;67.95;53.83;;;25.90;67.60;;;;;;4918685;28;90370;-52
2022/08/24 08:00:00;;;;;;;66.72;54.10;;;25.90;67.60;;;;;;4925134;28;92271;-53
2022/08/24 08:02:26;;;;;;;65.35;53.88;;;25.90;67.70;;;;;;4927405;28;91608;-53
2022/08/24 08:04:55;;;;;;;67.57;53.58;;;25.80;67.30;;;;;;4918251;28;90337;-53
2022/08/24 08:07:21;;;;;;;65.60;53.70;;;25.90;67.30;;;;;;4925421;28;92006;-51
2022/08/24 08:09:48;;;;;;;66.93;53.17;;;25.80;66.80;;;;;;4927445;28;91568;-53
2022/08/24 08:12:14;;;;;;;66.78;53.58;;;25.80;66.80;;;;;;4916997;28;91097;-54
2022/08/24 08:14:40;;;;;;;69.07;53.40;;;25.80;66.80;;;;;;4914356;28;91281;-53
2022/08/24 08:17:06;;;;;;;65.57;53.05;;;25.90;66.40;;;;;;4919221;28;90409;-54
2022/08/24 08:19:33;;;;;;;66.07;52.97;;;25.90;66.30;;;;;;4925587;28;92410;-51
2022/08/24 08:24:43;;;;;;;65.80;52.85;;;25.90;66.10;;;;;;4919622;28;94556;-55
2022/08/24 08:27:11;;;;;;;64.18;52.72;;;25.90;65.80;;;;;;4918611;28;92355;-54
2022/08/24 08:29:39;;;;;;;64.95;52.38;;;26.00;65.70;;;;;;4924817;28;90300;-55
2022/08/24 08:32:06;;;;;;;63.75;52.05;;;26.00;65.60;;;;;;4915145;28;92902;-55
2022/08/24 08:34:31;;;;;;;63.83;52.13;;;26.00;65.30;;;;;;4917934;28;92537;-55
2022/08/24 08:36:58;;;;;;;63.30;52.22;;;26.00;65.20;;;;;;4920587;28;93799;-52
2022/08/24 08:39:25;;;;;;;64.78;52.10;;;26.10;65.00;;;;;;4921709;28;89971;-53
2022/08/24 08:42:16;;;;;;;64.63;51.97;;;26.20;64.70;;;;;;4926323;28;89081;-54
2022/08/24 08:44:53;;;;;;;63.78;51.85;;;26.40;64.30;;;;;;4916941;28;90557;-52
2022/08/24 08:47:43;;;;;;;65.25;52.33;;;26.50;64.00;;;;;;4914285;28;91480;-54
2022/08/24 08:50:15;;;;;;;65.30;52.13;;;26.60;63.90;;;;;;4923976;28;91308;-53
2022/08/24 08:53:00;;;;;;;64.70;52.42;;;26.60;63.60;;;;;;4914647;28;90083;-52
2022/08/24 08:55:40;;;;;;;63.88;52.15;;;26.70;63.50;;;;;;4920309;28;91214;-51
2022/08/24 08:58:21;;;;;;;64.83;51.80;;;26.70;63.40;;;;;;4920370;28;91192;-52
2022/08/24 09:01:02;;;;;;;63.35;51.80;;;26.70;63.20;;;;;;4920598;28;90610;-53
2022/08/24 09:03:43;;;;;;;63.30;51.78;;;26.80;63.20;;;;;;4927681;28;90279;-54
2022/08/24 09:06:35;;;;;;;64.22;51.95;;;26.80;63.10;;;;;;4925798;28;90473;-54
2022/08/24 09:09:13;;;;;;;63.25;51.95;;;26.80;63.90;;;;;;4920044;28;90811;-56
2022/08/24 09:12:12;;;;;;;65.35;52.25;;;26.80;63.30;;;;;;4922209;28;92502;-55
2022/08/24 09:15:00;;;;;;;64.43;52.10;;;26.80;63.00;;;;;;4935713;28;94096;-56
2022/08/24 09:18:07;;;;;;;63.53;51.97;;;26.80;62.90;;;;;;4924891;28;92540;-53
2022/08/24 09:20:48;;;;;;;63.75;52.13;;;26.80;62.70;;;;;;4919801;28;92201;-54
2022/08/24 09:23:52;;;;;;;65.28;51.92;;;26.90;62.80;;;;;;4924823;28;90078;-55
2022/08/24 09:26:31;;;;;;;65.78;52.05;;;26.90;62.50;;;;;;4916211;28;95719;-54
2022/08/24 09:29:09;;;;;;;63.90;52.00;;;27.00;62.30;;;;;;4927993;28;91308;-53
2022/08/24 09:31:53;;;;;;;64.30;52.03;;;27.00;62.40;;;;;;4924078;28;90023;-53
2022/08/24 09:34:37;;;;;;;63.67;51.88;;;27.00;62.20;;;;;;4921268;28;91819;-54
2022/08/24 09:37:34;;;;;;;64.43;51.97;;;27.00;62.10;;;;;;4916648;28;90377;-55
2022/08/24 09:40:16;;;;;;;63.53;51.90;;;27.00;61.80;;;;;;4924958;28;90607;-55
2022/08/24 09:42:56;;;;;;;67.18;51.95;;;27.00;61.70;;;;;;4914028;28;93356;-55
2022/08/24 09:45:40;;;;;;;64.22;52.05;;;27.00;61.50;;;;;;4919117;28;91697;-55
2022/08/24 09:48:32;;;;;;;64.68;52.03;;;27.00;61.40;;;;;;4914396;28;89596;-54
2022/08/24 09:51:12;;;;;;;65.88;52.15;;;27.10;61.20;;;;;;4918070;28;90406;-53
2022/08/24 09:54:15;;;;;;;63.88;51.88;;;27.10;61.00;;;;;;4924153;28;90768;-60
2022/08/24 09:56:52;;;;;;;64.00;51.85;;;27.10;60.80;;;;;;4923188;28;90284;-53
2022/08/24 09:59:38;;;;;;;65.50;51.95;;;27.10;60.70;;;;;;4922214;28;90788;-55
2022/08/24 10:02:41;;;;;;;63.33;51.92;;;27.10;61.30;;;;;;4915033;28;92971;-53
2022/08/24 10:05:25;;;;;;;66.05;51.70;;;27.10;60.50;;;;;;4916218;28;89786;-54
2022/08/24 10:08:23;;;;;;;64.57;51.95;;;27.20;60.40;;;;;;4915058;28;91125;-54
2022/08/24 10:11:10;;;;;;;66.07;51.95;;;27.20;60.30;;;;;;4912528;28;89912;-54
2022/08/24 10:13:52;;;;;;;64.80;51.97;;;27.20;60.20;;;;;;4913809;28;91011;-56
2022/08/24 10:16:41;;;;;;;64.03;51.83;;;27.20;60.00;;;;;;4915351;28;90928;-53
2022/08/24 10:19:26;;;;;;;64.00;51.92;;;27.20;60.00;;;;;;4921706;28;95506;-56
2022/08/24 10:22:05;;;;;;;64.65;52.13;;;27.10;60.00;;;;;;4912860;28;95976;-54
2022/08/24 10:24:36;;;;;;;64.55;52.15;;;27.00;60.20;;;;;;4925376;28;91237;-52
2022/08/24 10:27:07;;;;;;;64.35;51.85;;;27.10;60.20;;;;;;4918020;28;91732;-55
2022/08/24 10:29:57;;;;;;;64.90;52.33;;;27.10;60.00;;;;;;4928376;28;90030;-54
2022/08/24 10:32:41;;;;;;;63.03;51.90;;;27.00;60.10;;;;;;4922168;28;90052;-53
2022/08/24 10:35:21;;;;;;;65.53;52.33;;;27.10;60.10;;;;;;4927598;28;94932;-55
2022/08/24 10:41:01;;;;;;;64.00;52.20;;;27.20;59.70;;;;;;4925701;28;91463;-53
2022/08/24 10:43:57;;;;;;;66.57;52.33;;;27.20;59.80;;;;;;4920487;28;90463;-54
2022/08/24 10:46:53;;;;;;;64.35;52.13;;;27.30;59.70;;;;;;4925393;28;95808;-55
2022/08/24 10:49:31;;;;;;;65.47;52.08;;;27.30;59.70;;;;;;4926719;28;90315;-51
2022/08/24 10:52:15;;;;;;;64.80;52.00;;;27.30;59.60;;;;;;4923224;28;90964;-55
2022/08/24 10:54:41;;;;;;;64.55;52.22;;;27.30;59.50;;;;;;4916545;28;91308;-55
2022/08/24 10:57:30;;;;;;;66.72;52.10;;;27.30;59.50;;;;;;4921184;28;91404;-54
2022/08/24 11:00:13;;;;;;;64.72;52.25;;;27.30;59.50;;;;;;4929377;28;93537;-51
2022/08/24 11:02:41;;;;;;;64.93;51.95;;;27.30;59.50;;;;;;4921759;28;93944;-54
2022/08/24 11:05:13;;;;;;;64.75;52.17;;;27.30;59.50;;;;;;4917277;28;90181;-55
2022/08/24 11:08:01;;;;;;;63.85;52.00;;;27.30;60.20;;;;;;4920053;28;92528;-51
2022/08/24 11:10:33;;;;;;;64.35;52.22;;;27.20;59.70;;;;;;4917019;28;92059;-53
2022/08/24 11:13:24;;;;;;;64.68;52.22;;;27.30;59.70;;;;;;4911170;28;90344;-54
2022/08/24 11:15:57;;;;;;;65.22;52.13;;;27.30;59.60;;;;;;4920242;28;92250;-54
2022/08/24 11:18:23;;;;;;;63.92;52.25;;;27.20;59.60;;;;;;4909942;28;90251;-55
2022/08/24 11:20:52;;;;;;;65.10;52.30;;;27.30;59.80;;;;;;4922111;28;92064;-56
2022/08/24 11:23:24;;;;;;;66.72;52.45;;;27.30;59.70;;;;;;4936504;28;90818;-55
2022/08/24 11:26:12;;;;;;;64.15;52.30;;;27.40;59.70;;;;;;4919849;28;92019;-54
2022/08/24 11:28:49;;;;;;;64.95;52.45;;;27.20;59.70;;;;;;4920273;28;90164;-54
2022/08/24 11:31:39;;;;;;;68.55;53.28;;;27.30;60.00;;;;;;4914575;28;91676;-54
2022/08/24 11:34:13;;;;;;;100.85;61.30;;;27.20;60.40;;;;;;4921383;28;91690;-54
2022/08/24 11:36:39;;;;;;;84.60;58.10;;;27.30;60.70;;;;;;4917052;28;90378;-54
2022/08/24 11:39:31;;;;;;;79.57;55.53;;;27.30;61.00;;;;;;4910733;28;93452;-53
2022/08/24 11:42:16;;;;;;;77.47;55.00;;;27.20;60.50;;;;;;4922785;28;89956;-52
2022/08/24 11:44:51;;;;;;;73.50;54.53;;;27.20;60.50;;;;;;4923017;28;90465;-53
2022/08/24 11:47:32;;;;;;;70.28;53.83;;;27.20;60.40;;;;;;4926748;28;90581;-53
2022/08/24 11:50:28;;;;;;;71.43;53.72;;;27.30;60.60;;;;;;4917588;28;90368;-55
2022/08/24 11:53:16;;;;;;;70.60;54.03;;;27.30;60.50;;;;;;4924789;28;89297;-52
2022/08/24 11:55:56;;;;;;;70.32;53.83;;;27.40;60.40;;;;;;4927160;28;90510;-54
2022/08/24 11:58:46;;;;;;;69.88;53.65;;;27.30;60.10;;;;;;4929952;28;93056;-54
2022/08/24 12:01:37;;;;;;;67.33;53.73;;;27.40;60.30;;;;;;4923697;28;91077;-51
2022/08/24 12:04:17;;;;;;;68.40;54.15;;;27.40;60.00;;;;;;4923037;28;91081;-52
2022/08/24 12:07:34;;;;;;;72.97;53.70;;;27.30;60.10;;;;;;4917709;28;90537;-51
2022/08/24 12:10:17;;;;;;;72.80;53.67;;;27.20;60.30;;;;;;4942997;28;91054;-51
2022/08/24 12:13:02;;;;;;;69.60;53.85;;;27.10;60.80;;;;;;4924238;28;90672;-54
2022/08/24 12:16:01;;;;;;;67.85;53.50;;;27.10;60.70;;;;;;4924931;28;91040;-53
2022/08/24 12:18:49;;;;;;;69.03;53.75;;;27.20;59.80;;;;;;4921032;28;91176;-55
2022/08/24 12:21:21;;;;;;;69.57;53.80;;;27.10;60.20;;;;;;4920573;28;90028;-50
2022/08/24 12:24:14;;;;;;;68.57;53.58;;;26.90;60.60;;;;;;4928769;28;92163;-53
2022/08/24 12:26:51;;;;;;;68.93;53.58;;;27.00;60.70;;;;;;4922417;28;95386;-52
2022/08/24 12:29:29;;;;;;;66.43;53.47;;;27.00;60.70;;;;;;4916498;28;91157;-55
2022/08/24 12:32:20;;;;;;;67.82;53.47;;;27.00;60.40;;;;;;4926499;28;91477;-55
2022/08/24 12:34:50;;;;;;;70.30;54.13;;;27.00;60.00;;;;;;4920704;28;90793;-54
2022/08/24 12:37:57;;;;;;;66.80;53.28;;;27.00;60.00;;;;;;4922249;28;90176;-55
2022/08/24 12:40:28;;;;;;;72.32;53.45;;;27.10;59.90;;;;;;4914695;28;92249;-55
2022/08/24 12:43:07;;;;;;;66.85;53.42;;;27.10;59.80;;;;;;4921902;28;92495;-52
2022/08/24 12:45:34;;;;;;;68.82;53.25;;;27.10;59.90;;;;;;4923020;28;92123;-54
2022/08/24 12:48:17;;;;;;;66.53;53.42;;;27.10;60.00;;;;;;4924656;28;90575;-53
2022/08/24 12:51:17;;;;;;;69.50;53.13;;;27.00;60.00;;;;;;4923240;28;90666;-52
2022/08/24 12:54:04;;;;;;;68.65;53.80;;;27.00;60.00;;;;;;4919466;28;94049;-54
2022/08/24 12:57:06;;;;;;;67.35;52.95;;;27.10;60.00;;;;;;4913045;28;91657;-52
2022/08/24 12:59:36;;;;;;;68.30;53.33;;;27.10;60.00;;;;;;4916826;28;91023;-53
2022/08/24 13:02:04;;;;;;;67.60;53.40;;;27.10;60.00;;;;;;4918068;28;91161;-54